sensor_id;sensor_type;location;lat;lon;timestamp;pressure;altitude;pressure_sealevel;temperature;humidity
74675;BME280;63200;48.810;12.352;2023-03-01T00:01:13;98244.78;;;-0.14;62.10
74675;BME280;63200;48.810;12.352;2023-03-01T00:03:38;98244.22;;;-0.03;61.60
74675;BME280;63200;48.810;12.352;2023-03-01T00:06:05;98234.69;;;-0.19;61.74
74675;BME280;63200;48.810;12.352;2023-03-01T00:08:30;98241.72;;;-0.11;61.92
74675;BME280;63200;48.810;12.352;2023-03-01T00:13:27;98255.22;;;-0.20;61.58
74675;BME280;63200;48.810;12.352;2023-03-01T00:15:52;98249.03;;;-0.20;61.69
74675;BME280;63200;48.810;12.352;2023-03-01T00:18:18;98251.50;;;-0.19;61.70
74675;BME280;63200;48.810;12.352;2023-03-01T00:20:50;98243.13;;;-0.15;61.72
74675;BME280;63200;48.810;12.352;2023-03-01T00:23:16;98240.41;;;-0.22;62.06
74675;BME280;63200;48.810;12.352;2023-03-01T00:25:42;98240.75;;;-0.32;61.94
74675;BME280;63200;48.810;12.352;2023-03-01T00:28:07;98232.47;;;-0.44;62.24
74675;BME280;63200;48.810;12.352;2023-03-01T00:30:32;98239.06;;;-0.40;62.00
74675;BME280;63200;48.810;12.352;2023-03-01T00:32:58;98236.78;;;-0.43;62.42
74675;BME280;63200;48.810;12.352;2023-03-01T00:35:23;98245.63;;;-0.42;62.26
74675;BME280;63200;48.810;12.352;2023-03-01T00:37:48;98237.19;;;-0.46;62.54
74675;BME280;63200;48.810;12.352;2023-03-01T00:40:18;98243.09;;;-0.51;62.85
74675;BME280;63200;48.810;12.352;2023-03-01T00:42:43;98237.50;;;-0.56;63.00
74675;BME280;63200;48.810;12.352;2023-03-01T00:45:09;98234.84;;;-0.56;62.98
74675;BME280;63200;48.810;12.352;2023-03-01T00:47:34;98231.00;;;-0.46;62.67
74675;BME280;63200;48.810;12.352;2023-03-01T00:50:00;98190.34;;;-0.84;62.74
74675;BME280;63200;48.810;12.352;2023-03-01T00:52:25;98235.25;;;-0.59;62.92
74675;BME280;63200;48.810;12.352;2023-03-01T00:54:52;98231.31;;;-0.63;63.56
74675;BME280;63200;48.810;12.352;2023-03-01T00:57:17;98231.47;;;-0.71;63.41
74675;BME280;63200;48.810;12.352;2023-03-01T00:59:43;98227.28;;;-0.80;63.41
74675;BME280;63200;48.810;12.352;2023-03-01T01:02:08;98218.03;;;-0.85;63.65
74675;BME280;63200;48.810;12.352;2023-03-01T01:04:33;98223.72;;;-0.88;63.52
74675;BME280;63200;48.810;12.352;2023-03-01T01:06:58;98214.88;;;-0.95;63.67
74675;BME280;63200;48.810;12.352;2023-03-01T01:09:24;98211.56;;;-0.97;63.95
74675;BME280;63200;48.810;12.352;2023-03-01T01:11:50;98216.69;;;-0.95;63.85
74675;BME280;63200;48.810;12.352;2023-03-01T01:14:17;98218.47;;;-1.03;63.62
74675;BME280;63200;48.810;12.352;2023-03-01T01:16:43;98214.50;;;-1.13;63.64
74675;BME280;63200;48.810;12.352;2023-03-01T01:19:10;98211.31;;;-1.24;63.79
74675;BME280;63200;48.810;12.352;2023-03-01T01:21:36;98207.31;;;-1.35;63.78
74675;BME280;63200;48.810;12.352;2023-03-01T01:24:03;98200.28;;;-1.42;64.53
74675;BME280;63200;48.810;12.352;2023-03-01T01:26:31;98202.75;;;-1.41;64.51
74675;BME280;63200;48.810;12.352;2023-03-01T01:28:57;98205.03;;;-1.38;64.42
74675;BME280;63200;48.810;12.352;2023-03-01T01:31:23;98195.75;;;-1.42;64.39
74675;BME280;63200;48.810;12.352;2023-03-01T01:33:49;98199.00;;;-1.46;64.78
74675;BME280;63200;48.810;12.352;2023-03-01T01:36:15;98199.00;;;-1.46;64.41
74675;BME280;63200;48.810;12.352;2023-03-01T01:38:41;98192.41;;;-1.51;64.46
74675;BME280;63200;48.810;12.352;2023-03-01T01:41:08;98193.69;;;-1.46;64.04
74675;BME280;63200;48.810;12.352;2023-03-01T01:43:42;98182.44;;;-1.42;63.85
74675;BME280;63200;48.810;12.352;2023-03-01T01:49:06;98118.97;;;-1.81;63.65
74675;BME280;63200;48.810;12.352;2023-03-01T01:51:40;98172.94;;;-1.51;63.88
74675;BME280;63200;48.810;12.352;2023-03-01T01:54:15;98173.75;;;-1.72;64.03
74675;BME280;63200;48.810;12.352;2023-03-01T01:56:45;98170.47;;;-1.89;64.35
74675;BME280;63200;48.810;12.352;2023-03-01T01:59:13;98173.19;;;-2.04;65.57
74675;BME280;63200;48.810;12.352;2023-03-01T02:01:39;98125.09;;;-2.39;66.26
74675;BME280;63200;48.810;12.352;2023-03-01T02:04:04;98157.72;;;-2.15;67.10
74675;BME280;63200;48.810;12.352;2023-03-01T02:06:35;98161.47;;;-2.25;66.54
74675;BME280;63200;48.810;12.352;2023-03-01T02:09:06;98151.75;;;-2.32;66.88
74675;BME280;63200;48.810;12.352;2023-03-01T02:11:33;98136.91;;;-2.57;66.45
74675;BME280;63200;48.810;12.352;2023-03-01T02:13:59;98159.28;;;-2.51;66.88
74675;BME280;63200;48.810;12.352;2023-03-01T02:16:25;98103.38;;;-2.88;67.85
74675;BME280;63200;48.810;12.352;2023-03-01T02:18:52;98130.59;;;-2.71;68.55
74675;BME280;63200;48.810;12.352;2023-03-01T02:21:49;98153.59;;;-2.48;68.99
74675;BME280;63200;48.810;12.352;2023-03-01T02:24:35;98156.25;;;-2.48;68.75
74675;BME280;63200;48.810;12.352;2023-03-01T02:27:03;98144.81;;;-2.48;68.66
74675;BME280;63200;48.810;12.352;2023-03-01T02:29:29;98102.84;;;-2.83;68.51
74675;BME280;63200;48.810;12.352;2023-03-01T02:31:57;98148.00;;;-2.53;68.32
74675;BME280;63200;48.810;12.352;2023-03-01T02:34:24;98154.41;;;-2.62;68.29
74675;BME280;63200;48.810;12.352;2023-03-01T02:36:55;98157.47;;;-2.65;68.31
74675;BME280;63200;48.810;12.352;2023-03-01T02:39:31;98152.31;;;-2.67;68.94
74675;BME280;63200;48.810;12.352;2023-03-01T02:41:58;98139.75;;;-2.73;68.31
74675;BME280;63200;48.810;12.352;2023-03-01T02:44:25;98149.00;;;-2.69;68.92
74675;BME280;63200;48.810;12.352;2023-03-01T02:46:52;98148.63;;;-2.81;68.79
74675;BME280;63200;48.810;12.352;2023-03-01T02:49:27;98137.56;;;-2.70;68.51
74675;BME280;63200;48.810;12.352;2023-03-01T02:52:16;98146.81;;;-2.80;68.28
74675;BME280;63200;48.810;12.352;2023-03-01T02:54:56;98140.56;;;-2.88;68.64
74675;BME280;63200;48.810;12.352;2023-03-01T02:57:25;98140.94;;;-2.91;69.14
74675;BME280;63200;48.810;12.352;2023-03-01T02:59:54;98137.81;;;-2.94;69.29
74675;BME280;63200;48.810;12.352;2023-03-01T03:02:22;98131.75;;;-3.03;68.97
74675;BME280;63200;48.810;12.352;2023-03-01T03:05:12;98134.06;;;-3.00;70.14
74675;BME280;63200;48.810;12.352;2023-03-01T03:07:41;98126.38;;;-2.95;69.98
74675;BME280;63200;48.810;12.352;2023-03-01T03:10:09;98126.38;;;-2.95;69.46
74675;BME280;63200;48.810;12.352;2023-03-01T03:12:36;98124.25;;;-2.99;69.51
74675;BME280;63200;48.810;12.352;2023-03-01T03:15:02;98123.34;;;-3.07;69.19
74675;BME280;63200;48.810;12.352;2023-03-01T03:17:36;98128.88;;;-3.16;69.24
74675;BME280;63200;48.810;12.352;2023-03-01T03:20:04;98129.78;;;-3.24;69.08
74675;BME280;63200;48.810;12.352;2023-03-01T03:22:31;98133.47;;;-3.25;70.32
74675;BME280;63200;48.810;12.352;2023-03-01T03:24:56;98123.75;;;-3.33;70.42
74675;BME280;63200;48.810;12.352;2023-03-01T03:27:22;98128.28;;;-3.42;69.80
74675;BME280;63200;48.810;12.352;2023-03-01T03:29:47;98123.34;;;-3.45;70.01
74675;BME280;63200;48.810;12.352;2023-03-01T03:32:12;98115.56;;;-3.46;71.01
74675;BME280;63200;48.810;12.352;2023-03-01T03:34:38;98117.19;;;-3.45;70.98
74675;BME280;63200;48.810;12.352;2023-03-01T03:37:03;98126.47;;;-3.41;70.97
74675;BME280;63200;48.810;12.352;2023-03-01T03:39:28;98118.31;;;-3.40;70.99
74675;BME280;63200;48.810;12.352;2023-03-01T03:42:00;98083.22;;;-3.73;70.81
74675;BME280;63200;48.810;12.352;2023-03-01T03:44:25;98121.94;;;-3.56;70.83
74675;BME280;63200;48.810;12.352;2023-03-01T03:46:50;98104.53;;;-3.58;71.53
74675;BME280;63200;48.810;12.352;2023-03-01T03:49:15;98105.25;;;-3.64;71.48
74675;BME280;63200;48.810;12.352;2023-03-01T03:51:41;98108.59;;;-3.71;70.90
74675;BME280;63200;48.810;12.352;2023-03-01T03:54:06;98114.63;;;-3.77;70.75
74675;BME280;63200;48.810;12.352;2023-03-01T03:56:31;98110.94;;;-3.76;71.69
74675;BME280;63200;48.810;12.352;2023-03-01T03:58:57;98104.81;;;-3.76;71.20
74675;BME280;63200;48.810;12.352;2023-03-01T04:01:22;98099.88;;;-3.79;71.08
74675;BME280;63200;48.810;12.352;2023-03-01T04:03:47;98098.84;;;-3.78;71.75
74675;BME280;63200;48.810;12.352;2023-03-01T04:06:14;98103.72;;;-3.82;71.04
74675;BME280;63200;48.810;12.352;2023-03-01T04:08:39;98100.94;;;-3.89;71.00
74675;BME280;63200;48.810;12.352;2023-03-01T04:11:06;98092.50;;;-3.92;71.23
74675;BME280;63200;48.810;12.352;2023-03-01T04:13:51;98094.50;;;-3.94;72.12
74675;BME280;63200;48.810;12.352;2023-03-01T04:16:17;98055.72;;;-4.19;72.02
74675;BME280;63200;48.810;12.352;2023-03-01T04:18:43;98089.66;;;-3.91;72.26
74675;BME280;63200;48.810;12.352;2023-03-01T04:21:09;98084.00;;;-3.88;72.16
74675;BME280;63200;48.810;12.352;2023-03-01T04:23:35;98087.50;;;-3.87;72.10
74675;BME280;63200;48.810;12.352;2023-03-01T04:26:01;98084.72;;;-3.94;72.14
74675;BME280;63200;48.810;12.352;2023-03-01T04:28:42;98089.56;;;-3.97;71.37
74675;BME280;63200;48.810;12.352;2023-03-01T04:31:13;98086.97;;;-4.06;71.25
74675;BME280;63200;48.810;12.352;2023-03-01T04:33:47;98089.50;;;-4.12;71.71
74675;BME280;63200;48.810;12.352;2023-03-01T04:36:14;98083.88;;;-4.18;72.13
74675;BME280;63200;48.810;12.352;2023-03-01T04:38:40;98057.00;;;-4.38;71.94
74675;BME280;63200;48.810;12.352;2023-03-01T04:41:08;98085.38;;;-4.15;71.84
74675;BME280;63200;48.810;12.352;2023-03-01T04:43:34;98083.72;;;-4.16;72.13
74675;BME280;63200;48.810;12.352;2023-03-01T04:46:04;98091.47;;;-4.14;72.27
74675;BME280;63200;48.810;12.352;2023-03-01T04:48:31;98102.44;;;-4.18;72.03
74675;BME280;63200;48.810;12.352;2023-03-01T04:50:58;98092.84;;;-4.19;72.43
74675;BME280;63200;48.810;12.352;2023-03-01T04:53:24;98055.22;;;-4.45;72.19
74675;BME280;63200;48.810;12.352;2023-03-01T04:55:50;98051.78;;;-4.54;71.94
74675;BME280;63200;48.810;12.352;2023-03-01T04:58:15;98064.97;;;-4.46;71.63
74675;BME280;63200;48.810;12.352;2023-03-01T05:00:41;98091.59;;;-4.31;72.25
74675;BME280;63200;48.810;12.352;2023-03-01T05:03:08;98087.59;;;-4.27;72.34
74675;BME280;63200;48.810;12.352;2023-03-01T05:05:35;98085.00;;;-4.35;72.06
74675;BME280;63200;48.810;12.352;2023-03-01T05:08:06;98084.16;;;-4.36;72.07
74675;BME280;63200;48.810;12.352;2023-03-01T05:10:34;98038.56;;;-4.62;72.58
74675;BME280;63200;48.810;12.352;2023-03-01T05:13:01;98049.84;;;-4.60;72.90
74675;BME280;63200;48.810;12.352;2023-03-01T05:15:28;98086.34;;;-4.39;72.40
74675;BME280;63200;48.810;12.352;2023-03-01T05:17:55;98075.25;;;-4.43;72.79
74675;BME280;63200;48.810;12.352;2023-03-01T05:20:23;98049.16;;;-4.62;72.44
74675;BME280;63200;48.810;12.352;2023-03-01T05:22:50;98041.47;;;-4.80;72.73
74675;BME280;63200;48.810;12.352;2023-03-01T05:25:15;98088.38;;;-4.58;72.99
74675;BME280;63200;48.810;12.352;2023-03-01T05:27:42;98084.56;;;-4.55;73.33
74675;BME280;63200;48.810;12.352;2023-03-01T05:30:10;98085.91;;;-4.51;73.00
74675;BME280;63200;48.810;12.352;2023-03-01T05:32:46;98091.66;;;-4.47;73.54
74675;BME280;63200;48.810;12.352;2023-03-01T05:35:14;98083.25;;;-4.51;73.21
74675;BME280;63200;48.810;12.352;2023-03-01T05:37:41;98078.81;;;-4.59;73.06
74675;BME280;63200;48.810;12.352;2023-03-01T05:40:09;98078.31;;;-4.62;72.85
74675;BME280;63200;48.810;12.352;2023-03-01T05:42:42;98082.44;;;-4.60;72.79
74675;BME280;63200;48.810;12.352;2023-03-01T05:45:08;98077.63;;;-4.56;72.64
74675;BME280;63200;48.810;12.352;2023-03-01T05:47:34;98056.50;;;-4.73;72.94
74675;BME280;63200;48.810;12.352;2023-03-01T05:50:00;98082.81;;;-4.63;72.57
74675;BME280;63200;48.810;12.352;2023-03-01T05:52:26;98073.06;;;-4.71;73.04
74675;BME280;63200;48.810;12.352;2023-03-01T05:54:51;98080.53;;;-4.74;72.46
74675;BME280;63200;48.810;12.352;2023-03-01T05:57:16;98066.59;;;-4.76;72.38
74675;BME280;63200;48.810;12.352;2023-03-01T05:59:42;98064.81;;;-4.76;72.94
74675;BME280;63200;48.810;12.352;2023-03-01T06:02:07;98071.22;;;-4.70;73.07
74675;BME280;63200;48.810;12.352;2023-03-01T06:04:32;98067.91;;;-4.64;72.96
74675;BME280;63200;48.810;12.352;2023-03-01T06:06:57;98066.38;;;-4.58;73.10
74675;BME280;63200;48.810;12.352;2023-03-01T06:09:23;98076.94;;;-4.50;73.34
74675;BME280;63200;48.810;12.352;2023-03-01T06:11:48;98052.75;;;-4.55;72.64
74675;BME280;63200;48.810;12.352;2023-03-01T06:14:13;98075.88;;;-4.32;73.27
74675;BME280;63200;48.810;12.352;2023-03-01T06:16:39;98080.56;;;-4.20;72.38
74675;BME280;63200;48.810;12.352;2023-03-01T06:19:05;98032.22;;;-4.22;72.45
74675;BME280;63200;48.810;12.352;2023-03-01T06:21:30;98080.97;;;-3.23;71.68
74675;BME280;63200;48.810;12.352;2023-03-01T06:23:55;98084.31;;;-2.76;70.64
74675;BME280;63200;48.810;12.352;2023-03-01T06:26:21;98075.72;;;-2.27;70.00
74675;BME280;63200;48.810;12.352;2023-03-01T06:28:46;98080.00;;;-1.89;68.58
74675;BME280;63200;48.810;12.352;2023-03-01T06:31:11;98069.66;;;-1.77;65.62
74675;BME280;63200;48.810;12.352;2023-03-01T06:33:37;98080.41;;;-1.14;66.35
74675;BME280;63200;48.810;12.352;2023-03-01T06:36:02;98077.13;;;-0.46;65.48
74675;BME280;63200;48.810;12.352;2023-03-01T06:38:28;98082.50;;;0.36;63.74
74675;BME280;63200;48.810;12.352;2023-03-01T06:40:54;98080.88;;;0.89;60.81
74675;BME280;63200;48.810;12.352;2023-03-01T06:43:20;98077.75;;;1.71;58.87
74675;BME280;63200;48.810;12.352;2023-03-01T06:45:46;98086.88;;;2.40;55.29
74675;BME280;63200;48.810;12.352;2023-03-01T06:48:11;98081.69;;;2.13;53.53
74675;BME280;63200;48.810;12.352;2023-03-01T06:50:36;98085.22;;;2.90;52.72
74675;BME280;63200;48.810;12.352;2023-03-01T06:53:03;98072.56;;;3.41;51.53
74675;BME280;63200;48.810;12.352;2023-03-01T06:55:29;98048.56;;;3.64;49.97
74675;BME280;63200;48.810;12.352;2023-03-01T06:57:58;98078.41;;;3.38;50.25
74675;BME280;63200;48.810;12.352;2023-03-01T07:00:25;98055.81;;;3.45;49.74
74675;BME280;63200;48.810;12.352;2023-03-01T07:02:51;98073.91;;;4.17;49.49
74675;BME280;63200;48.810;12.352;2023-03-01T07:05:17;98072.88;;;4.73;47.64
74675;BME280;63200;48.810;12.352;2023-03-01T07:07:42;98074.19;;;4.94;46.45
74675;BME280;63200;48.810;12.352;2023-03-01T07:10:08;98076.59;;;4.60;47.51
74675;BME280;63200;48.810;12.352;2023-03-01T07:12:34;98080.06;;;4.37;47.30
74675;BME280;63200;48.810;12.352;2023-03-01T07:14:59;98078.59;;;5.24;46.51
74675;BME280;63200;48.810;12.352;2023-03-01T07:17:24;98083.81;;;5.66;45.68
74675;BME280;63200;48.810;12.352;2023-03-01T07:19:50;98073.09;;;5.42;45.67
74675;BME280;63200;48.810;12.352;2023-03-01T07:22:15;98077.19;;;5.33;45.24
74675;BME280;63200;48.810;12.352;2023-03-01T07:24:42;98075.53;;;5.96;44.83
74675;BME280;63200;48.810;12.352;2023-03-01T07:27:07;98071.13;;;6.02;44.76
74675;BME280;63200;48.810;12.352;2023-03-01T07:29:32;98068.91;;;7.13;42.20
74675;BME280;63200;48.810;12.352;2023-03-01T07:31:58;98068.34;;;7.28;41.70
74675;BME280;63200;48.810;12.352;2023-03-01T07:34:24;98070.28;;;7.94;40.93
74675;BME280;63200;48.810;12.352;2023-03-01T07:36:49;98067.03;;;7.53;41.18
74675;BME280;63200;48.810;12.352;2023-03-01T07:39:15;98069.50;;;6.64;42.05
74675;BME280;63200;48.810;12.352;2023-03-01T07:41:40;98071.31;;;6.75;42.00
74675;BME280;63200;48.810;12.352;2023-03-01T07:44:05;98073.09;;;7.60;40.34
74675;BME280;63200;48.810;12.352;2023-03-01T07:46:30;98058.50;;;8.60;39.13
74675;BME280;63200;48.810;12.352;2023-03-01T07:48:56;98064.69;;;8.88;38.70
74675;BME280;63200;48.810;12.352;2023-03-01T07:51:23;98062.44;;;9.60;36.15
74675;BME280;63200;48.810;12.352;2023-03-01T07:53:48;98060.41;;;9.34;36.53
74675;BME280;63200;48.810;12.352;2023-03-01T07:56:16;98055.31;;;9.00;38.56
74675;BME280;63200;48.810;12.352;2023-03-01T07:58:44;98059.41;;;8.16;39.25
74675;BME280;63200;48.810;12.352;2023-03-01T08:01:12;98055.50;;;7.57;40.17
74675;BME280;63200;48.810;12.352;2023-03-01T08:03:38;98063.94;;;8.10;39.80
74675;BME280;63200;48.810;12.352;2023-03-01T08:06:05;98057.47;;;8.66;38.68
74675;BME280;63200;48.810;12.352;2023-03-01T08:08:32;98017.31;;;8.90;37.14
74675;BME280;63200;48.810;12.352;2023-03-01T08:10:58;98064.31;;;9.11;37.67
74675;BME280;63200;48.810;12.352;2023-03-01T08:13:24;98053.88;;;9.83;36.88
74675;BME280;63200;48.810;12.352;2023-03-01T08:15:49;98058.19;;;9.79;34.73
74675;BME280;63200;48.810;12.352;2023-03-01T08:18:16;98050.34;;;9.30;35.74
74675;BME280;63200;48.810;12.352;2023-03-01T08:20:41;98048.63;;;9.13;33.93
74675;BME280;63200;48.810;12.352;2023-03-01T08:23:07;98047.47;;;7.84;38.48
74675;BME280;63200;48.810;12.352;2023-03-01T08:25:32;98044.28;;;7.48;38.16
74675;BME280;63200;48.810;12.352;2023-03-01T08:27:58;98052.34;;;6.53;39.65
74675;BME280;63200;48.810;12.352;2023-03-01T08:30:23;98042.56;;;5.77;42.53
74675;BME280;63200;48.810;12.352;2023-03-01T08:32:49;98047.72;;;5.26;43.65
74675;BME280;63200;48.810;12.352;2023-03-01T08:35:15;98047.84;;;4.96;43.13
74675;BME280;63200;48.810;12.352;2023-03-01T08:37:41;98037.78;;;5.03;44.28
74675;BME280;63200;48.810;12.352;2023-03-01T08:40:06;98037.56;;;5.16;44.06
74675;BME280;63200;48.810;12.352;2023-03-01T08:42:34;98040.84;;;5.07;43.78
74675;BME280;63200;48.810;12.352;2023-03-01T08:45:00;98037.66;;;5.33;43.38
74675;BME280;63200;48.810;12.352;2023-03-01T08:47:25;98023.56;;;5.43;43.51
74675;BME280;63200;48.810;12.352;2023-03-01T08:49:51;98034.53;;;5.65;42.40
74675;BME280;63200;48.810;12.352;2023-03-01T08:52:19;98034.50;;;5.77;42.43
74675;BME280;63200;48.810;12.352;2023-03-01T08:54:44;98022.97;;;5.82;41.78
74675;BME280;63200;48.810;12.352;2023-03-01T08:57:10;98017.34;;;5.95;42.18
74675;BME280;63200;48.810;12.352;2023-03-01T08:59:35;98018.84;;;5.91;42.39
74675;BME280;63200;48.810;12.352;2023-03-01T09:02:03;98012.53;;;5.57;42.51
74675;BME280;63200;48.810;12.352;2023-03-01T09:04:29;98013.19;;;5.76;43.12
74675;BME280;63200;48.810;12.352;2023-03-01T09:06:54;97997.22;;;6.32;41.34
74675;BME280;63200;48.810;12.352;2023-03-01T09:09:20;97994.34;;;6.22;40.65
74675;BME280;63200;48.810;12.352;2023-03-01T09:11:46;97999.13;;;6.48;40.04
74675;BME280;63200;48.810;12.352;2023-03-01T09:14:13;97974.53;;;6.45;40.26
74675;BME280;63200;48.810;12.352;2023-03-01T09:16:38;98002.28;;;6.28;40.58
74675;BME280;63200;48.810;12.352;2023-03-01T09:19:04;97998.34;;;6.19;40.46
74675;BME280;63200;48.810;12.352;2023-03-01T09:21:30;97994.75;;;6.13;41.67
74675;BME280;63200;48.810;12.352;2023-03-01T09:23:56;97994.19;;;6.11;40.86
74675;BME280;63200;48.810;12.352;2023-03-01T09:26:23;97993.06;;;6.07;40.94
74675;BME280;63200;48.810;12.352;2023-03-01T09:28:50;97987.59;;;6.53;40.98
74675;BME280;63200;48.810;12.352;2023-03-01T09:31:17;97980.34;;;6.93;39.92
74675;BME280;63200;48.810;12.352;2023-03-01T09:33:46;97982.53;;;7.57;38.62
74675;BME280;63200;48.810;12.352;2023-03-01T09:36:14;97984.25;;;7.41;38.41
74675;BME280;63200;48.810;12.352;2023-03-01T09:38:39;97985.94;;;6.69;40.04
74675;BME280;63200;48.810;12.352;2023-03-01T09:43:47;97979.88;;;6.11;40.25
74675;BME280;63200;48.810;12.352;2023-03-01T09:46:14;97977.31;;;6.50;40.24
74675;BME280;63200;48.810;12.352;2023-03-01T09:48:46;97971.47;;;6.41;39.36
74675;BME280;63200;48.810;12.352;2023-03-01T09:51:27;97963.97;;;6.43;40.59
74675;BME280;63200;48.810;12.352;2023-03-01T09:53:54;97971.16;;;6.55;39.79
74675;BME280;63200;48.810;12.352;2023-03-01T09:56:34;97965.72;;;6.89;39.07
74675;BME280;63200;48.810;12.352;2023-03-01T10:01:59;97968.53;;;6.77;39.13
74675;BME280;63200;48.810;12.352;2023-03-01T10:04:45;97956.59;;;7.56;37.88
74675;BME280;63200;48.810;12.352;2023-03-01T10:07:33;97924.94;;;7.52;37.78
74675;BME280;63200;48.810;12.352;2023-03-01T10:10:08;97952.50;;;7.31;37.92
74675;BME280;63200;48.810;12.352;2023-03-01T10:12:40;97949.69;;;6.99;39.88
74675;BME280;63200;48.810;12.352;2023-03-01T10:15:13;97939.31;;;7.13;38.65
74675;BME280;63200;48.810;12.352;2023-03-01T10:17:46;97936.44;;;6.97;39.01
74675;BME280;63200;48.810;12.352;2023-03-01T10:20:21;97934.94;;;7.07;38.62
74675;BME280;63200;48.810;12.352;2023-03-01T10:22:47;97922.31;;;7.34;37.93
74675;BME280;63200;48.810;12.352;2023-03-01T10:25:17;97930.69;;;7.60;39.13
74675;BME280;63200;48.810;12.352;2023-03-01T10:28:02;97926.91;;;7.61;38.13
74675;BME280;63200;48.810;12.352;2023-03-01T10:30:39;97928.34;;;7.69;37.69
74675;BME280;63200;48.810;12.352;2023-03-01T10:33:33;97928.50;;;7.57;36.11
74675;BME280;63200;48.810;12.352;2023-03-01T10:36:01;97926.88;;;7.34;38.47
74675;BME280;63200;48.810;12.352;2023-03-01T10:38:30;97903.56;;;7.77;38.82
74675;BME280;63200;48.810;12.352;2023-03-01T10:41:04;97917.34;;;8.08;37.37
74675;BME280;63200;48.810;12.352;2023-03-01T10:43:49;97915.25;;;8.48;36.86
74675;BME280;63200;48.810;12.352;2023-03-01T10:46:42;97911.28;;;8.61;36.73
74675;BME280;63200;48.810;12.352;2023-03-01T10:49:19;97907.41;;;8.89;35.07
74675;BME280;63200;48.810;12.352;2023-03-01T10:51:47;97902.50;;;8.86;36.73
74675;BME280;63200;48.810;12.352;2023-03-01T10:54:28;97889.69;;;8.71;35.78
74675;BME280;63200;48.810;12.352;2023-03-01T10:56:56;97871.03;;;8.75;35.86
74675;BME280;63200;48.810;12.352;2023-03-01T10:59:36;97890.28;;;8.83;36.24
74675;BME280;63200;48.810;12.352;2023-03-01T11:02:23;97873.72;;;8.32;36.37
74675;BME280;63200;48.810;12.352;2023-03-01T11:04:59;97864.47;;;9.19;35.94
74675;BME280;63200;48.810;12.352;2023-03-01T11:07:24;97861.75;;;9.19;35.02
74675;BME280;63200;48.810;12.352;2023-03-01T11:09:50;97863.41;;;9.30;35.62
74675;BME280;63200;48.810;12.352;2023-03-01T11:12:16;97862.72;;;8.97;35.18
74675;BME280;63200;48.810;12.352;2023-03-01T11:14:50;97857.81;;;8.83;34.80
74675;BME280;63200;48.810;12.352;2023-03-01T11:17:27;97847.09;;;9.09;35.20
74675;BME280;63200;48.810;12.352;2023-03-01T11:22:45;97844.16;;;9.26;35.43
74675;BME280;63200;48.810;12.352;2023-03-01T11:25:13;97842.50;;;9.20;35.86
74675;BME280;63200;48.810;12.352;2023-03-01T11:27:44;97827.88;;;9.11;35.41
74675;BME280;63200;48.810;12.352;2023-03-01T11:30:29;97833.72;;;8.87;35.86
74675;BME280;63200;48.810;12.352;2023-03-01T11:35:35;97824.09;;;8.16;37.42
74675;BME280;63200;48.810;12.352;2023-03-01T11:38:12;97815.19;;;8.15;37.62
74675;BME280;63200;48.810;12.352;2023-03-01T11:47:21;97799.38;;;7.97;38.31
74675;BME280;63200;48.810;12.352;2023-03-01T11:55:14;97791.19;;;8.29;38.05
74675;BME280;63200;48.810;12.352;2023-03-01T11:57:56;97782.34;;;8.39;37.44
74675;BME280;63200;48.810;12.352;2023-03-01T12:00:38;97795.72;;;8.18;38.35
74675;BME280;63200;48.810;12.352;2023-03-01T12:03:20;97783.03;;;8.19;38.92
74675;BME280;63200;48.810;12.352;2023-03-01T12:06:24;97785.75;;;8.72;38.61
74675;BME280;63200;48.810;12.352;2023-03-01T12:12:11;97776.03;;;8.76;38.01
74675;BME280;63200;48.810;12.352;2023-03-01T12:14:55;97766.38;;;9.01;37.26
74675;BME280;63200;48.810;12.352;2023-03-01T12:17:57;97760.94;;;9.11;37.01
74675;BME280;63200;48.810;12.352;2023-03-01T12:26:32;97747.47;;;9.53;35.62
74675;BME280;63200;48.810;12.352;2023-03-01T12:50:31;97721.00;;;10.30;35.06
74675;BME280;63200;48.810;12.352;2023-03-01T12:53:00;97681.94;;;10.42;33.88
74675;BME280;63200;48.810;12.352;2023-03-01T12:55:35;97707.72;;;10.39;34.73
74675;BME280;63200;48.810;12.352;2023-03-01T13:00:57;97702.69;;;9.91;36.46
74675;BME280;63200;48.810;12.352;2023-03-01T13:03:59;97699.41;;;10.05;36.38
74675;BME280;63200;48.810;12.352;2023-03-01T13:09:41;97707.19;;;10.37;36.93
74675;BME280;63200;48.810;12.352;2023-03-01T13:17:50;97692.31;;;10.19;35.18
74675;BME280;63200;48.810;12.352;2023-03-01T13:20:20;97694.69;;;10.41;35.41
74675;BME280;63200;48.810;12.352;2023-03-01T13:22:46;97693.38;;;10.18;35.86
74675;BME280;63200;48.810;12.352;2023-03-01T13:25:21;97684.19;;;10.14;35.08
74675;BME280;63200;48.810;12.352;2023-03-01T13:27:48;97694.84;;;9.69;36.65
74675;BME280;63200;48.810;12.352;2023-03-01T13:35:58;97699.38;;;10.10;35.69
74675;BME280;63200;48.810;12.352;2023-03-01T13:41:05;97702.69;;;10.72;34.96
74675;BME280;63200;48.810;12.352;2023-03-01T13:43:38;97668.03;;;10.54;34.27
74675;BME280;63200;48.810;12.352;2023-03-01T13:46:16;97700.06;;;10.52;35.41
74675;BME280;63200;48.810;12.352;2023-03-01T13:48:45;97697.09;;;10.98;35.26
74675;BME280;63200;48.810;12.352;2023-03-01T13:51:13;97657.47;;;10.52;35.19
74675;BME280;63200;48.810;12.352;2023-03-01T13:53:45;97687.94;;;10.39;35.99
74675;BME280;63200;48.810;12.352;2023-03-01T13:56:20;97669.75;;;10.29;35.73
74675;BME280;63200;48.810;12.352;2023-03-01T13:59:02;97659.75;;;10.19;35.49
74675;BME280;63200;48.810;12.352;2023-03-01T14:01:31;97673.66;;;9.87;37.02
74675;BME280;63200;48.810;12.352;2023-03-01T14:03:57;97680.47;;;9.79;37.65
74675;BME280;63200;48.810;12.352;2023-03-01T14:06:25;97651.78;;;9.57;37.16
74675;BME280;63200;48.810;12.352;2023-03-01T14:09:01;97671.78;;;9.92;37.07
74675;BME280;63200;48.810;12.352;2023-03-01T14:11:49;97670.97;;;9.81;37.09
74675;BME280;63200;48.810;12.352;2023-03-01T14:17:34;97667.13;;;10.03;37.46
74675;BME280;63200;48.810;12.352;2023-03-01T14:20:20;97668.19;;;10.07;38.17
74675;BME280;63200;48.810;12.352;2023-03-01T14:22:47;97676.31;;;10.12;37.33
74675;BME280;63200;48.810;12.352;2023-03-01T14:25:21;97658.25;;;9.82;37.53
74675;BME280;63200;48.810;12.352;2023-03-01T14:27:55;97675.84;;;9.90;38.65